Time;durP1;ratioP1;P1;durP2;ratioP2;P2;SDS_P1;SDS_P2;PMS_P1;PMS_P2;Temp;Humidity;BMP_temperature;BMP_pressure;BME280_temperature;BME280_humidity;BME280_pressure;Samples;Min_cycle;Max_cycle;Signal;HPM_P1;HPM_P2
2021/03/13 00:01:14;;;;;;;19.88;3.03;;;7.50;99.90;;;;;;5091373;28;20028;-72
2021/03/13 00:03:40;;;;;;;17.95;3.22;;;7.40;99.90;;;;;;5091968;28;20491;-72
2021/03/13 00:06:06;;;;;;;19.80;3.33;;;7.50;99.90;;;;;;5091419;28;20492;-71
2021/03/13 00:08:35;;;;;;;19.40;3.22;;;7.50;99.90;;;;;;5091465;28;20020;-71
2021/03/13 00:11:01;;;;;;;14.35;3.40;;;7.50;99.90;;;;;;5091577;28;20114;-71
2021/03/13 00:13:27;;;;;;;25.88;3.67;;;7.50;99.90;;;;;;5091813;28;20520;-71
2021/03/13 00:15:53;;;;;;;30.73;5.00;;;7.50;99.90;;;;;;5090753;28;20111;-72
2021/03/13 00:18:18;;;;;;;24.90;5.13;;;7.50;99.90;;;;;;5091744;28;20095;-72
2021/03/13 00:20:44;;;;;;;15.60;3.33;;;7.50;99.90;;;;;;5092118;28;20077;-72
2021/03/13 00:23:10;;;;;;;17.88;2.90;;;7.60;99.90;;;;;;5090810;28;20464;-72
2021/03/13 00:25:38;;;;;;;19.02;3.42;;;7.60;99.90;;;;;;5091969;28;20095;-71
2021/03/13 00:28:05;;;;;;;14.15;3.95;;;7.70;99.90;;;;;;5091428;28;20028;-71
2021/03/13 00:30:36;;;;;;;14.65;3.17;;;7.70;99.90;;;;;;5091101;28;20031;-71
2021/03/13 00:33:08;;;;;;;14.57;2.80;;;7.70;99.90;;;;;;5091314;28;20427;-72
2021/03/13 00:35:34;;;;;;;18.10;3.75;;;7.70;99.90;;;;;;5091596;28;20048;-72
2021/03/13 00:38:01;;;;;;;13.23;2.65;;;7.60;99.90;;;;;;5090632;28;20052;-72
2021/03/13 00:40:29;;;;;;;8.48;1.90;;;7.70;99.90;;;;;;5093420;28;20027;-72
2021/03/13 00:42:55;;;;;;;11.32;2.30;;;7.70;99.90;;;;;;5095470;28;20024;-71
2021/03/13 00:45:23;;;;;;;13.60;2.13;;;7.70;99.90;;;;;;5094991;28;20062;-72
2021/03/13 00:47:49;;;;;;;13.77;3.10;;;7.70;99.90;;;;;;5095721;28;20020;-71
2021/03/13 00:50:17;;;;;;;11.25;2.20;;;7.70;99.90;;;;;;5095385;28;20022;-72
2021/03/13 00:52:43;;;;;;;12.90;2.78;;;7.70;99.90;;;;;;5095822;28;20021;-72
2021/03/13 00:55:11;;;;;;;9.77;2.67;;;7.70;99.90;;;;;;5107450;28;20371;-72
2021/03/13 00:57:37;;;;;;;20.80;2.90;;;7.70;99.90;;;;;;5096976;28;20019;-72
2021/03/13 01:00:14;;;;;;;13.85;2.78;;;7.70;99.90;;;;;;5098025;28;20047;-72
2021/03/13 01:02:40;;;;;;;14.23;2.50;;;7.70;99.90;;;;;;5104529;28;20028;-72
2021/03/13 01:05:07;;;;;;;9.30;2.78;;;7.70;99.90;;;;;;5093920;28;20035;-71
2021/03/13 01:07:33;;;;;;;16.42;3.50;;;7.60;99.90;;;;;;5102197;28;20023;-72
2021/03/13 01:10:00;;;;;;;6.60;2.28;;;7.60;99.90;;;;;;5103921;28;20039;-71
2021/03/13 01:12:26;;;;;;;9.27;2.50;;;7.60;99.90;;;;;;5108901;28;20028;-71
2021/03/13 01:14:52;;;;;;;10.05;2.50;;;7.60;99.90;;;;;;5101218;28;20028;-72
2021/03/13 01:17:17;;;;;;;9.73;2.72;;;7.60;99.90;;;;;;5100454;28;20051;-72
2021/03/13 01:19:43;;;;;;;9.95;2.63;;;7.60;99.90;;;;;;5094499;28;20028;-72
2021/03/13 01:22:09;;;;;;;14.27;2.45;;;7.60;99.90;;;;;;5107713;27;20030;-72
2021/03/13 01:24:40;;;;;;;5.32;1.75;;;7.60;99.90;;;;;;5095071;28;20518;-72
2021/03/13 01:27:06;;;;;;;8.43;1.80;;;7.50;99.90;;;;;;5094419;28;20146;-71
2021/03/13 01:29:32;;;;;;;10.02;1.80;;;7.50;99.90;;;;;;5094737;28;20621;-71
2021/03/13 01:32:02;;;;;;;4.30;1.33;;;7.40;99.90;;;;;;5094425;28;20069;-72
2021/03/13 01:34:28;;;;;;;4.45;1.40;;;7.40;99.90;;;;;;5094303;28;20032;-71
2021/03/13 01:36:54;;;;;;;10.25;2.47;;;7.30;99.90;;;;;;5096478;28;20024;-71
2021/03/13 01:39:19;;;;;;;8.35;1.73;;;7.30;99.90;;;;;;5106546;28;20406;-72
2021/03/13 01:41:45;;;;;;;6.07;1.90;;;7.30;99.90;;;;;;5093747;28;20573;-72
2021/03/13 01:44:10;;;;;;;12.05;3.10;;;7.20;99.90;;;;;;5094479;28;20042;-71
2021/03/13 01:46:36;;;;;;;6.68;3.20;;;7.20;99.90;;;;;;5093829;28;20424;-71
2021/03/13 01:49:02;;;;;;;4.72;2.85;;;7.20;99.90;;;;;;5094362;28;20107;-71
2021/03/13 01:51:27;;;;;;;9.85;2.58;;;7.10;99.90;;;;;;5093341;28;20468;-71
2021/03/13 01:53:53;;;;;;;9.93;3.05;;;7.10;99.90;;;;;;5093360;28;20799;-72
2021/03/13 01:56:20;;;;;;;11.43;3.60;;;7.10;99.90;;;;;;5094401;28;20169;-72
2021/03/13 01:58:45;;;;;;;8.85;3.13;;;7.10;99.90;;;;;;5094554;28;20024;-73
2021/03/13 02:01:12;;;;;;;7.38;2.33;;;7.10;99.90;;;;;;5093641;28;20024;-71
2021/03/13 02:03:39;;;;;;;11.40;2.40;;;7.00;99.90;;;;;;5094605;28;20073;-72
2021/03/13 02:06:05;;;;;;;9.80;3.40;;;7.00;99.90;;;;;;5093673;28;20050;-71
2021/03/13 02:08:52;;;;;;;8.00;2.65;;;7.10;99.90;;;;;;5093462;28;20024;-71
2021/03/13 02:11:36;;;;;;;13.07;2.53;;;7.00;99.90;;;;;;5098815;28;20023;-72
2021/03/13 02:14:10;;;;;;;13.35;2.45;;;7.00;99.90;;;;;;5100753;28;20482;-72
2021/03/13 02:16:56;;;;;;;7.35;2.95;;;7.00;99.90;;;;;;5093437;28;20024;-71
2021/03/13 02:20:04;;;;;;;6.50;2.55;;;7.00;99.90;;;;;;5094050;28;20446;-71
2021/03/13 02:22:35;;;;;;;9.50;2.88;;;7.00;99.90;;;;;;5093453;28;20028;-72
2021/03/13 02:25:04;;;;;;;9.50;3.55;;;7.00;99.90;;;;;;5107885;28;20035;-71
2021/03/13 02:27:44;;;;;;;10.60;4.00;;;7.00;99.90;;;;;;5093764;28;20028;-71
2021/03/13 02:30:18;;;;;;;7.60;4.13;;;6.90;99.90;;;;;;5092988;28;20374;-71
2021/03/13 02:32:59;;;;;;;9.68;3.55;;;7.00;99.90;;;;;;5093647;28;20051;-71
2021/03/13 02:35:33;;;;;;;9.02;4.60;;;7.00;99.90;;;;;;5093663;28;20020;-71
2021/03/13 02:38:05;;;;;;;9.05;4.55;;;7.10;99.90;;;;;;5092445;28;20119;-72
2021/03/13 02:40:34;;;;;;;10.25;5.32;;;7.00;99.90;;;;;;5093866;28;20028;-72
2021/03/13 02:43:03;;;;;;;8.25;4.45;;;6.90;99.90;;;;;;5092984;28;20206;-72
2021/03/13 02:45:33;;;;;;;11.63;4.65;;;6.90;99.90;;;;;;5093411;28;20035;-72
2021/03/13 02:48:03;;;;;;;10.37;4.30;;;7.00;99.90;;;;;;5093236;28;20020;-72
2021/03/13 02:50:30;;;;;;;10.82;3.97;;;6.90;99.90;;;;;;5092671;28;20024;-72
2021/03/13 02:52:57;;;;;;;7.65;4.00;;;7.00;99.90;;;;;;5093218;28;20028;-71
2021/03/13 02:55:24;;;;;;;8.68;3.60;;;6.90;99.90;;;;;;5107522;28;20044;-72
2021/03/13 02:57:53;;;;;;;11.93;4.15;;;7.00;99.90;;;;;;5092523;28;20111;-72
2021/03/13 03:00:21;;;;;;;9.00;3.63;;;7.00;99.90;;;;;;5097621;28;20028;-72
2021/03/13 03:02:52;;;;;;;10.50;3.80;;;7.00;99.90;;;;;;5098137;28;20085;-72
2021/03/13 03:05:19;;;;;;;4.68;3.75;;;6.90;99.90;;;;;;5092230;28;20115;-72
2021/03/13 03:07:47;;;;;;;7.10;4.07;;;7.00;99.90;;;;;;5093327;28;20035;-71
2021/03/13 03:10:16;;;;;;;6.63;4.07;;;7.00;99.90;;;;;;5094367;28;20385;-71
2021/03/13 03:12:46;;;;;;;7.68;4.38;;;7.00;99.90;;;;;;5093554;28;20058;-71
2021/03/13 03:15:14;;;;;;;12.23;3.25;;;7.00;99.90;;;;;;5100243;28;20024;-72
2021/03/13 03:17:40;;;;;;;7.93;3.28;;;7.00;99.90;;;;;;5094539;28;20042;-70
2021/03/13 03:20:09;;;;;;;6.53;2.35;;;7.00;99.90;;;;;;5092150;28;20016;-71
2021/03/13 03:22:36;;;;;;;8.43;3.58;;;7.10;99.90;;;;;;5092977;28;20047;-71
2021/03/13 03:25:03;;;;;;;7.30;2.90;;;7.10;99.90;;;;;;5091600;28;20059;-72
2021/03/13 03:27:29;;;;;;;6.05;2.95;;;7.10;99.90;;;;;;5092718;28;20028;-71
2021/03/13 03:29:55;;;;;;;7.53;2.90;;;7.10;99.90;;;;;;5092090;28;20417;-72
2021/03/13 03:32:21;;;;;;;9.70;2.50;;;7.10;99.90;;;;;;5092360;28;20031;-71
2021/03/13 03:34:46;;;;;;;6.93;3.28;;;7.20;99.90;;;;;;5092761;28;20024;-71
2021/03/13 03:37:12;;;;;;;7.00;2.83;;;7.10;99.90;;;;;;5092312;28;20111;-70
2021/03/13 03:39:38;;;;;;;7.78;2.90;;;7.20;99.90;;;;;;5091781;28;20032;-72
2021/03/13 03:42:04;;;;;;;13.48;3.03;;;7.20;99.90;;;;;;5092061;28;20023;-71
2021/03/13 03:44:36;;;;;;;8.52;2.70;;;7.20;99.90;;;;;;5092339;28;20028;-71
2021/03/13 03:47:04;;;;;;;7.60;2.20;;;7.20;99.90;;;;;;5091339;28;20031;-71
2021/03/13 03:49:31;;;;;;;4.30;2.15;;;7.20;99.90;;;;;;5092395;28;20051;-71
2021/03/13 03:51:58;;;;;;;6.82;2.60;;;7.20;99.90;;;;;;5092008;28;20023;-71
2021/03/13 03:54:25;;;;;;;3.97;1.92;;;7.20;99.90;;;;;;5091678;28;20024;-71
2021/03/13 03:56:51;;;;;;;6.72;2.45;;;7.20;99.90;;;;;;5091687;28;20040;-71
2021/03/13 03:59:19;;;;;;;8.85;2.92;;;7.20;99.90;;;;;;5092041;28;20075;-71
2021/03/13 04:01:50;;;;;;;6.47;2.10;;;7.30;99.90;;;;;;5091657;28;20047;-72
2021/03/13 04:04:20;;;;;;;9.38;3.65;;;7.30;99.90;;;;;;5092551;28;20031;-72
2021/03/13 04:06:46;;;;;;;3.95;2.20;;;7.30;99.90;;;;;;5092364;28;20048;-72
2021/03/13 04:09:12;;;;;;;15.20;2.60;;;7.30;99.90;;;;;;5091466;28;20027;-72
2021/03/13 04:11:40;;;;;;;4.18;1.70;;;7.40;99.90;;;;;;5099409;28;20024;-71
2021/03/13 04:14:09;;;;;;;6.63;1.88;;;7.40;99.90;;;;;;5098313;28;20031;-72
2021/03/13 04:16:35;;;;;;;6.78;1.55;;;7.50;99.90;;;;;;5090938;28;20107;-71
2021/03/13 04:19:02;;;;;;;6.30;1.70;;;7.50;99.90;;;;;;5091486;28;20106;-72
2021/03/13 04:21:29;;;;;;;6.15;1.92;;;7.50;99.90;;;;;;5091111;28;20065;-72
2021/03/13 04:23:54;;;;;;;5.82;1.77;;;7.60;99.90;;;;;;5091366;28;20024;-72
2021/03/13 04:26:22;;;;;;;5.28;1.70;;;7.60;99.90;;;;;;5091841;28;20035;-71
2021/03/13 04:28:49;;;;;;;6.45;1.50;;;7.70;99.90;;;;;;5091239;28;20027;-72
2021/03/13 04:31:24;;;;;;;9.13;1.48;;;7.70;99.90;;;;;;5091961;28;20028;-71
2021/03/13 04:33:50;;;;;;;10.80;1.95;;;7.80;99.90;;;;;;5091477;28;20020;-71
2021/03/13 04:36:17;;;;;;;12.02;1.67;;;7.80;99.90;;;;;;5090862;28;20020;-71
2021/03/13 04:38:43;;;;;;;9.65;2.38;;;7.80;99.90;;;;;;5091678;28;20459;-72
2021/03/13 04:41:10;;;;;;;7.88;2.33;;;7.80;99.90;;;;;;5091463;28;20039;-72
2021/03/13 04:43:37;;;;;;;11.25;1.73;;;7.80;99.90;;;;;;5091212;28;20529;-72
2021/03/13 04:46:03;;;;;;;6.25;1.60;;;7.90;99.90;;;;;;5091292;28;20039;-71
2021/03/13 04:48:31;;;;;;;4.85;1.60;;;7.90;99.90;;;;;;5091739;28;20016;-71
2021/03/13 04:51:06;;;;;;;5.18;1.30;;;7.90;99.90;;;;;;5090577;28;20024;-71
2021/03/13 04:53:32;;;;;;;9.68;1.52;;;7.90;99.90;;;;;;5091419;28;20020;-73
2021/03/13 04:55:57;;;;;;;3.75;1.23;;;7.90;99.90;;;;;;5091492;28;20056;-72
2021/03/13 04:58:23;;;;;;;14.10;2.50;;;7.80;99.90;;;;;;5095218;28;20040;-71
2021/03/13 05:00:49;;;;;;;6.63;1.40;;;7.90;99.90;;;;;;5114269;28;20038;-72
2021/03/13 05:03:15;;;;;;;6.25;1.77;;;7.90;99.90;;;;;;5114472;28;20024;-71
2021/03/13 05:05:40;;;;;;;10.20;2.15;;;7.90;99.90;;;;;;5111196;28;20284;-70
2021/03/13 05:08:06;;;;;;;6.45;1.90;;;7.90;99.90;;;;;;5097774;28;20016;-71
2021/03/13 05:10:32;;;;;;;5.68;1.70;;;8.00;99.90;;;;;;5092403;28;20031;-71
2021/03/13 05:12:58;;;;;;;5.70;1.75;;;8.00;99.90;;;;;;5106864;28;20433;-71
2021/03/13 05:15:23;;;;;;;4.53;1.25;;;8.00;99.90;;;;;;5098196;28;20028;-72
2021/03/13 05:17:50;;;;;;;3.13;1.35;;;8.00;99.90;;;;;;5091901;28;20021;-71
2021/03/13 05:20:16;;;;;;;4.97;2.28;;;8.10;99.90;;;;;;5091261;28;20020;-71
2021/03/13 05:22:46;;;;;;;3.65;1.10;;;8.10;99.90;;;;;;5090498;28;20024;-71
2021/03/13 05:25:11;;;;;;;2.05;0.93;;;8.10;99.90;;;;;;5090085;28;20480;-72
2021/03/13 05:27:39;;;;;;;6.03;1.23;;;8.10;99.90;;;;;;5094693;28;20097;-71
2021/03/13 05:30:09;;;;;;;6.75;1.00;;;8.00;99.90;;;;;;5094557;28;20039;-72
2021/03/13 05:32:35;;;;;;;7.00;0.77;;;8.00;99.90;;;;;;5094138;28;20028;-71
2021/03/13 05:35:02;;;;;;;7.68;1.38;;;7.90;99.90;;;;;;5094311;28;20032;-72
2021/03/13 05:37:29;;;;;;;5.50;1.00;;;7.90;99.90;;;;;;5095184;28;20025;-73
2021/03/13 05:39:55;;;;;;;2.35;0.75;;;7.90;99.90;;;;;;5093954;28;20036;-72
2021/03/13 05:42:21;;;;;;;3.47;0.70;;;7.90;99.90;;;;;;5094757;28;20028;-72
2021/03/13 05:44:47;;;;;;;5.60;1.00;;;7.90;99.90;;;;;;5094623;28;20038;-71
2021/03/13 05:47:14;;;;;;;5.72;0.95;;;7.80;99.90;;;;;;5093776;28;20123;-71
2021/03/13 05:49:42;;;;;;;2.30;0.55;;;7.80;99.90;;;;;;5094588;28;20028;-71
2021/03/13 05:52:08;;;;;;;2.90;0.75;;;7.80;99.90;;;;;;5094308;28;20365;-72
2021/03/13 05:54:34;;;;;;;3.08;0.75;;;7.80;99.90;;;;;;5094065;28;20020;-72
2021/03/13 05:57:10;;;;;;;1.42;0.45;;;7.70;99.90;;;;;;5094084;28;20024;-72
2021/03/13 05:59:36;;;;;;;4.05;0.93;;;7.70;99.90;;;;;;5094416;28;20020;-71
2021/03/13 06:02:06;;;;;;;4.85;0.68;;;7.70;99.90;;;;;;5093057;28;20027;-71
2021/03/13 06:04:32;;;;;;;5.15;0.93;;;7.70;99.90;;;;;;5094460;28;20016;-72
2021/03/13 06:06:59;;;;;;;8.27;1.23;;;7.70;99.90;;;;;;5092794;28;20517;-71
2021/03/13 06:09:25;;;;;;;3.10;0.57;;;7.80;99.90;;;;;;5094392;28;20027;-72
2021/03/13 06:11:52;;;;;;;8.00;1.20;;;7.70;99.90;;;;;;5103325;28;20032;-72
2021/03/13 06:14:17;;;;;;;14.75;1.35;;;7.70;99.90;;;;;;5098132;28;20028;-73
2021/03/13 06:16:43;;;;;;;3.13;0.90;;;7.70;99.90;;;;;;5094520;28;20027;-72
2021/03/13 06:19:09;;;;;;;10.07;1.35;;;7.80;99.90;;;;;;5093909;28;20484;-72
2021/03/13 06:21:39;;;;;;;9.40;1.10;;;7.80;99.90;;;;;;5093357;28;20422;-72
2021/03/13 06:24:07;;;;;;;;;;;7.80;99.90;;;;;;5094277;28;20107;-72
2021/03/13 06:26:52;;;;;;;8.10;1.50;;;7.80;99.90;;;;;;5093759;28;19912;-71
2021/03/13 06:29:18;;;;;;;9.80;2.25;;;7.80;99.90;;;;;;5093363;28;20028;-70
2021/03/13 06:31:44;;;;;;;10.82;1.70;;;7.80;99.90;;;;;;5093602;28;20020;-71
2021/03/13 06:34:25;;;;;;;11.18;1.50;;;7.80;99.90;;;;;;5093686;28;20107;-72
2021/03/13 06:37:24;;;;;;;10.70;1.23;;;7.80;99.90;;;;;;5092556;28;20061;-71
2021/03/13 06:39:51;;;;;;;6.03;1.50;;;7.80;99.90;;;;;;5093613;28;20016;-71
2021/03/13 06:42:29;;;;;;;11.85;2.67;;;7.70;99.90;;;;;;5093194;28;20035;-72
2021/03/13 06:45:04;;;;;;;13.15;2.38;;;7.70;99.90;;;;;;5093275;28;20020;-71
2021/03/13 06:47:30;;;;;;;9.20;1.67;;;7.70;99.90;;;;;;5093520;28;20097;-72
2021/03/13 06:50:08;;;;;;;11.77;2.40;;;7.60;99.90;;;;;;5092366;28;20047;-72
2021/03/13 06:52:34;;;;;;;15.40;2.22;;;7.60;99.90;;;;;;5093391;28;20020;-72
2021/03/13 06:54:59;;;;;;;9.52;1.90;;;7.70;99.90;;;;;;5093152;28;20031;-71
2021/03/13 06:57:25;;;;;;;14.80;1.88;;;7.70;99.90;;;;;;5092838;28;20024;-72
2021/03/13 06:59:51;;;;;;;14.65;3.15;;;7.70;99.90;;;;;;5095627;28;20020;-72
2021/03/13 07:02:21;;;;;;;14.43;2.35;;;7.70;99.90;;;;;;5095808;28;20095;-71
2021/03/13 07:04:46;;;;;;;10.88;1.85;;;7.70;99.90;;;;;;5100804;28;20020;-72
2021/03/13 07:07:32;;;;;;;15.52;2.53;;;7.70;99.90;;;;;;5106804;28;20050;-71
2021/03/13 07:10:04;;;;;;;8.23;1.38;;;7.70;99.90;;;;;;5111279;28;20024;-73
2021/03/13 07:12:40;;;;;;;11.57;2.35;;;7.70;99.90;;;;;;5113212;28;20062;-72
2021/03/13 07:15:21;;;;;;;7.65;2.15;;;7.70;99.90;;;;;;5117194;28;20470;-72
2021/03/13 07:17:51;;;;;;;;;;;7.70;99.90;;;;;;5107612;27;20035;-72
2021/03/13 07:20:19;;;;;;;19.70;2.83;;;7.70;99.90;;;;;;5109379;28;20336;-72
2021/03/13 07:22:49;;;;;;;18.23;2.55;;;7.60;99.90;;;;;;5106801;28;20024;-72
2021/03/13 07:25:18;;;;;;;19.47;3.17;;;7.60;99.90;;;;;;5109468;28;20051;-71
2021/03/13 07:27:46;;;;;;;16.02;2.10;;;7.70;99.90;;;;;;5110796;28;20035;-72
2021/03/13 07:30:16;;;;;;;7.43;2.13;;;7.70;99.90;;;;;;5106471;28;20027;-71
2021/03/13 07:32:46;;;;;;;15.30;2.28;;;7.80;99.90;;;;;;5107740;28;20069;-74
2021/03/13 07:35:14;;;;;;;13.88;2.65;;;7.70;99.90;;;;;;5109344;28;20484;-71
2021/03/13 07:37:41;;;;;;;22.05;4.15;;;7.60;99.90;;;;;;5111287;28;20019;-72
2021/03/13 07:40:15;;;;;;;18.48;2.85;;;7.60;99.90;;;;;;5107652;28;20019;-73
2021/03/13 07:42:44;;;;;;;14.70;3.33;;;7.70;99.90;;;;;;5102081;28;20028;-72
2021/03/13 07:45:12;;;;;;;19.17;2.17;;;7.70;99.90;;;;;;5093337;28;20024;-72
2021/03/13 07:47:39;;;;;;;17.85;2.40;;;7.70;99.90;;;;;;5091054;28;20036;-71
2021/03/13 07:50:11;;;;;;;15.55;2.42;;;7.70;99.90;;;;;;5090061;28;20020;-71
2021/03/13 07:52:39;;;;;;;14.13;3.58;;;7.80;99.90;;;;;;5106578;28;20805;-72
2021/03/13 07:55:14;;;;;;;16.73;2.20;;;7.80;99.90;;;;;;5100167;28;20028;-72
2021/03/13 07:57:43;;;;;;;15.50;2.65;;;7.90;99.90;;;;;;5094311;28;20077;-71
2021/03/13 08:00:09;;;;;;;20.45;2.63;;;7.90;99.90;;;;;;5090925;28;20412;-71
2021/03/13 08:02:36;;;;;;;11.95;2.60;;;8.00;99.90;;;;;;5091722;28;20069;-72
2021/03/13 08:05:08;;;;;;;14.50;1.88;;;8.00;99.90;;;;;;5102247;28;20416;-72
2021/03/13 08:08:03;;;;;;;11.75;1.77;;;8.00;99.90;;;;;;5090848;28;20498;-71
2021/03/13 08:10:51;;;;;;;11.77;2.17;;;8.00;99.90;;;;;;5091244;28;20483;-72
2021/03/13 08:13:28;;;;;;;13.25;2.63;;;7.90;99.90;;;;;;5091186;28;20020;-73
2021/03/13 08:16:05;;;;;;;18.15;2.22;;;7.90;99.90;;;;;;5091055;28;20555;-72
2021/03/13 08:18:42;;;;;;;14.50;2.00;;;7.90;99.90;;;;;;5094507;28;20047;-73
2021/03/13 08:21:20;;;;;;;16.25;2.53;;;8.00;99.90;;;;;;5096729;28;20105;-73
2021/03/13 08:23:46;;;;;;;15.23;2.63;;;8.00;99.90;;;;;;5111133;28;20028;-73
2021/03/13 08:26:15;;;;;;;29.40;3.85;;;8.00;99.90;;;;;;5112022;28;20023;-72
2021/03/13 08:29:02;;;;;;;16.02;2.38;;;8.00;99.90;;;;;;5111111;28;20479;-72
2021/03/13 08:31:28;;;;;;;21.95;3.25;;;8.10;99.90;;;;;;5109302;28;20019;-75
2021/03/13 08:33:58;;;;;;;12.18;2.33;;;8.20;99.90;;;;;;5100088;28;20032;-75
2021/03/13 08:36:25;;;;;;;;;;;8.20;99.90;;;;;;5098441;28;20023;-75
2021/03/13 08:38:57;;;;;;;16.67;3.45;;;8.30;99.90;;;;;;5094428;28;19965;-75
2021/03/13 08:41:41;;;;;;;21.65;4.57;;;8.30;99.90;;;;;;5093632;28;20019;-75
2021/03/13 08:44:13;;;;;;;21.60;3.67;;;8.30;99.90;;;;;;5090763;28;20375;-75
2021/03/13 08:46:51;;;;;;;27.55;3.08;;;8.30;99.90;;;;;;5092615;28;20036;-74
2021/03/13 08:49:29;;;;;;;19.58;4.35;;;8.30;99.90;;;;;;5091666;28;20482;-74
2021/03/13 08:52:06;;;;;;;37.75;4.72;;;8.30;99.90;;;;;;5090732;28;20020;-73
2021/03/13 08:54:43;;;;;;;23.23;3.33;;;8.30;99.90;;;;;;5091371;28;20028;-73
2021/03/13 08:57:09;;;;;;;44.08;7.38;;;8.40;99.90;;;;;;5098122;28;20131;-74
2021/03/13 08:59:36;;;;;;;28.83;4.53;;;8.50;99.90;;;;;;5091963;28;20110;-75
2021/03/13 09:02:27;;;;;;;25.20;4.88;;;8.50;99.90;;;;;;5105127;28;20375;-73
2021/03/13 09:04:56;;;;;;;28.38;3.70;;;8.60;99.90;;;;;;5107229;28;20066;-74
2021/03/13 09:07:24;;;;;;;39.35;5.63;;;8.60;99.90;;;;;;5103715;27;20063;-74
2021/03/13 09:09:51;;;;;;;32.35;5.97;;;8.60;99.90;;;;;;5104308;28;20533;-72
2021/03/13 09:12:20;;;;;;;38.80;5.25;;;8.70;99.90;;;;;;5112131;28;20045;-73
2021/03/13 09:14:54;;;;;;;40.53;5.95;;;8.70;99.90;;;;;;5096477;28;20436;-73
2021/03/13 09:17:26;;;;;;;49.83;6.28;;;8.70;99.90;;;;;;5095281;28;20020;-75
2021/03/13 09:19:53;;;;;;;32.92;4.40;;;8.70;99.90;;;;;;5094926;28;20040;-73
2021/03/13 09:22:25;;;;;;;26.60;3.92;;;8.70;99.90;;;;;;5095259;28;20032;-74
2021/03/13 09:24:57;;;;;;;25.42;4.03;;;8.70;99.90;;;;;;5109298;28;20043;-74
2021/03/13 09:27:28;;;;;;;29.55;4.35;;;8.80;99.90;;;;;;5113846;28;20459;-74
2021/03/13 09:29:55;;;;;;;27.10;4.18;;;8.80;99.90;;;;;;5100875;27;20032;-73
2021/03/13 09:32:22;;;;;;;20.65;3.63;;;8.90;99.90;;;;;;5094213;28;20028;-73
2021/03/13 09:34:49;;;;;;;23.02;4.60;;;8.90;99.90;;;;;;5095950;28;20479;-69
2021/03/13 09:37:34;;;;;;;26.65;4.65;;;9.00;99.90;;;;;;5096628;28;20443;-73
2021/03/13 09:40:04;;;;;;;25.73;3.22;;;9.00;99.90;;;;;;5096633;28;20020;-72
2021/03/13 09:42:30;;;;;;;17.40;4.03;;;9.10;99.90;;;;;;5094833;28;20020;-73
2021/03/13 09:45:05;;;;;;;22.27;2.83;;;9.30;99.90;;;;;;5109250;28;20019;-72
2021/03/13 09:47:38;;;;;;;15.57;2.67;;;9.30;99.90;;;;;;5096112;28;20503;-73
2021/03/13 09:50:09;;;;;;;21.17;2.70;;;9.40;99.90;;;;;;5097034;28;20067;-74
2021/03/13 09:52:38;;;;;;;17.42;3.13;;;9.30;99.90;;;;;;5107601;28;20023;-75
2021/03/13 09:55:10;;;;;;;15.20;2.95;;;9.40;99.90;;;;;;5105471;28;20134;-74
2021/03/13 09:57:37;;;;;;;21.83;3.28;;;9.40;99.90;;;;;;5100844;28;20542;-76
2021/03/13 10:00:16;;;;;;;21.50;3.15;;;9.40;99.90;;;;;;5110643;28;20015;-73
2021/03/13 10:02:42;;;;;;;22.17;2.97;;;9.30;99.90;;;;;;5096684;28;20028;-73
2021/03/13 10:05:14;;;;;;;20.13;3.65;;;9.40;99.90;;;;;;5103996;28;20386;-74
2021/03/13 10:07:41;;;;;;;20.38;3.50;;;9.40;99.90;;;;;;5097554;28;20043;-76
2021/03/13 10:10:10;;;;;;;14.00;3.13;;;9.50;99.90;;;;;;5101108;28;20020;-72
2021/03/13 10:12:42;;;;;;;22.95;4.57;;;9.50;99.90;;;;;;5096852;28;20111;-74
2021/03/13 10:15:14;;;;;;;21.35;4.20;;;9.50;99.90;;;;;;5094203;28;20110;-73
2021/03/13 10:17:48;;;;;;;11.02;2.60;;;9.50;99.90;;;;;;5103911;28;20028;-73
2021/03/13 10:20:15;;;;;;;20.00;3.35;;;9.50;99.90;;;;;;5102212;28;20113;-73
2021/03/13 10:22:40;;;;;;;18.60;2.95;;;9.30;99.90;;;;;;5101546;28;20348;-73
2021/03/13 10:25:07;;;;;;;11.07;2.83;;;9.40;99.90;;;;;;5111907;28;20126;-74
2021/03/13 10:27:33;;;;;;;20.48;3.08;;;9.30;99.90;;;;;;5103143;28;20032;-74
2021/03/13 10:30:01;;;;;;;21.98;4.35;;;9.40;99.90;;;;;;5098266;28;20575;-73
2021/03/13 10:32:32;;;;;;;17.20;2.28;;;9.30;99.90;;;;;;5101928;28;20093;-74
2021/03/13 10:35:05;;;;;;;;;;;9.30;99.90;;;;;;5113350;28;20026;-75
2021/03/13 10:37:35;;;;;;;24.35;2.85;;;9.30;99.90;;;;;;5111659;27;19910;-75
2021/03/13 10:40:00;;;;;;;21.40;4.00;;;9.30;99.90;;;;;;5093599;28;20375;-75
2021/03/13 10:42:26;;;;;;;11.75;2.17;;;9.40;99.90;;;;;;5091195;28;20031;-74
2021/03/13 10:44:52;;;;;;;15.32;2.88;;;9.40;99.90;;;;;;5091656;28;20028;-73
2021/03/13 10:47:36;;;;;;;16.88;2.38;;;9.40;99.90;;;;;;5092211;28;20063;-73
2021/03/13 10:50:01;;;;;;;21.65;3.75;;;9.40;99.90;;;;;;5090775;28;20108;-74
2021/03/13 10:52:28;;;;;;;17.63;2.92;;;9.40;99.90;;;;;;5091420;28;20080;-74
2021/03/13 10:54:55;;;;;;;25.02;3.90;;;9.50;99.90;;;;;;5089699;28;20468;-74
2021/03/13 10:57:21;;;;;;;20.85;3.85;;;9.50;99.90;;;;;;5092341;28;20047;-74
2021/03/13 10:59:47;;;;;;;13.23;2.50;;;9.50;99.90;;;;;;5094470;28;20583;-74
2021/03/13 11:02:13;;;;;;;14.60;3.72;;;9.40;99.90;;;;;;5105749;28;20055;-74
2021/03/13 11:04:40;;;;;;;16.77;2.92;;;9.50;99.90;;;;;;5113985;28;20031;-74
2021/03/13 11:07:07;;;;;;;20.48;3.03;;;9.50;99.90;;;;;;5105404;28;20052;-73
2021/03/13 11:09:33;;;;;;;12.27;2.75;;;9.50;99.90;;;;;;5093595;28;20032;-74
2021/03/13 11:11:59;;;;;;;11.02;2.05;;;9.70;99.90;;;;;;5104238;28;20032;-74
2021/03/13 11:14:25;;;;;;;14.40;2.47;;;9.70;99.90;;;;;;5107241;28;20028;-73
2021/03/13 11:16:51;;;;;;;11.82;2.33;;;9.70;99.90;;;;;;5104729;28;20024;-74
2021/03/13 11:19:17;;;;;;;13.73;1.98;;;9.60;99.90;;;;;;5102528;28;20498;-73
2021/03/13 11:21:43;;;;;;;9.98;1.90;;;9.60;99.90;;;;;;5100070;28;20016;-74
2021/03/13 11:24:10;;;;;;;12.05;2.97;;;9.50;99.90;;;;;;5094382;28;20027;-73
2021/03/13 11:26:36;;;;;;;17.70;2.58;;;9.40;99.90;;;;;;5092019;28;20052;-74
2021/03/13 11:29:02;;;;;;;16.70;3.10;;;9.40;99.90;;;;;;5095172;28;20028;-74
2021/03/13 11:31:32;;;;;;;15.45;2.50;;;9.40;99.90;;;;;;5097745;28;20030;-73
2021/03/13 11:33:58;;;;;;;16.90;2.20;;;9.60;99.90;;;;;;5102460;28;20108;-74
2021/03/13 11:36:24;;;;;;;12.35;2.35;;;9.60;99.90;;;;;;5101239;28;20051;-74
2021/03/13 11:38:50;;;;;;;8.60;1.30;;;9.60;99.90;;;;;;5095318;28;20432;-74
2021/03/13 11:41:16;;;;;;;5.43;1.73;;;9.30;99.90;;;;;;5099168;28;20058;-73
2021/03/13 11:43:43;;;;;;;6.70;1.70;;;8.90;99.90;;;;;;5096808;28;20046;-74
2021/03/13 11:46:10;;;;;;;8.25;1.63;;;8.60;99.90;;;;;;5096560;28;20131;-74
2021/03/13 11:48:36;;;;;;;11.93;1.48;;;8.50;99.90;;;;;;5098500;28;20094;-73
2021/03/13 11:51:02;;;;;;;15.15;1.42;;;8.40;99.90;;;;;;5095999;28;20048;-73
2021/03/13 11:53:27;;;;;;;5.55;1.50;;;8.40;99.90;;;;;;5098765;28;20047;-73
2021/03/13 11:55:53;;;;;;;6.05;1.52;;;8.40;99.90;;;;;;5095771;28;20036;-74
2021/03/13 11:58:19;;;;;;;6.97;1.30;;;8.50;99.90;;;;;;5095699;28;20036;-74
2021/03/13 12:00:45;;;;;;;17.25;1.65;;;8.50;99.90;;;;;;5103157;28;20035;-74
2021/03/13 12:03:10;;;;;;;8.90;1.10;;;8.80;99.90;;;;;;5109027;28;20421;-76
2021/03/13 12:05:36;;;;;;;12.18;1.70;;;8.80;99.90;;;;;;5110056;28;20485;-75
2021/03/13 12:08:02;;;;;;;7.53;1.50;;;9.00;99.90;;;;;;5109652;28;20028;-74
2021/03/13 12:10:28;;;;;;;3.42;1.13;;;9.00;99.90;;;;;;5110057;28;20020;-74
2021/03/13 12:12:54;;;;;;;5.10;1.02;;;8.90;99.90;;;;;;5109049;28;20085;-75
2021/03/13 12:15:22;;;;;;;8.68;1.27;;;8.90;99.90;;;;;;5111006;28;20020;-75
2021/03/13 12:17:48;;;;;;;2.05;0.55;;;8.20;99.90;;;;;;5109059;28;20494;-76
2021/03/13 12:20:14;;;;;;;4.63;0.75;;;7.60;99.90;;;;;;5110673;28;20027;-76
2021/03/13 12:22:39;;;;;;;4.32;0.60;;;7.00;99.90;;;;;;5108906;28;20050;-76
2021/03/13 12:25:06;;;;;;;5.05;0.82;;;6.50;99.90;;;;;;5104930;28;20034;-76
2021/03/13 12:27:39;;;;;;;2.95;1.20;;;6.20;99.90;;;;;;5111595;28;20058;-74
2021/03/13 12:30:12;;;;;;;8.25;0.98;;;6.10;99.90;;;;;;5111731;28;20023;-76
2021/03/13 12:32:38;;;;;;;10.18;1.48;;;6.30;99.90;;;;;;5108790;28;20027;-74
2021/03/13 12:35:07;;;;;;;6.88;1.05;;;6.70;99.90;;;;;;5111820;28;20246;-75
2021/03/13 12:37:32;;;;;;;11.93;1.50;;;7.00;99.90;;;;;;5102529;28;20039;-74
2021/03/13 12:39:58;;;;;;;9.35;2.38;;;7.30;99.90;;;;;;5110976;28;20538;-75
2021/03/13 12:42:24;;;;;;;14.70;1.75;;;7.70;99.90;;;;;;5123921;28;20019;-74
2021/03/13 12:44:50;;;;;;;11.23;2.25;;;7.90;99.90;;;;;;5115827;28;20041;-73
2021/03/13 12:47:16;;;;;;;4.30;1.10;;;8.10;99.90;;;;;;5114577;28;20505;-73
2021/03/13 12:49:42;;;;;;;16.35;1.98;;;8.20;99.90;;;;;;5111919;28;20023;-74
2021/03/13 12:52:07;;;;;;;10.43;2.85;;;8.40;99.90;;;;;;5115750;28;20118;-74
2021/03/13 12:54:33;;;;;;;11.45;2.10;;;8.50;99.90;;;;;;5114213;28;20351;-74
2021/03/13 12:56:58;;;;;;;14.50;2.67;;;8.50;99.90;;;;;;5112981;28;20023;-74
2021/03/13 12:59:24;;;;;;;7.68;1.30;;;8.60;99.90;;;;;;5115150;28;20027;-74
2021/03/13 13:01:49;;;;;;;11.98;1.85;;;8.70;99.90;;;;;;5108779;28;20075;-75